Terminal Aerodrome Forecast
Issued by NWS

Home | Current Version | Previous Version | Graphics & Text | Print | Product List | Glossary On
Versions: 1 2 3 4 5 6 7 8 9 10 11 12 13
000
FTUS45 KGGW 170531
TAFSDY
TAF
KSDY 170531Z 1706/1806 27008KT P6SM SCT120
     FM171000 VRB04KT P6SM SCT140
     FM180200 28009KT P6SM BKN070
     FM180500 31011KT P6SM SCT060=

USA.gov is the U.S. government's official web portal to all federal, state and local government web resources and services.